Kou An 1102 — 3FLE6 — position and weather

sailwx.info

Track history (hours):
 
Tides and Currents Weather Stations Pressure Air Temp Water Temp Dewpoint Dewpoint Depression Visibility Wind Speed Wind Dir Waves Ship Positions

Kou An 1102

Last reported at 2016-Aug-23 02:31 UTC. Time now 2016-Sep-28 22:18 UTC.
Position N 31°60' E 120°21'.
Warning: this ship's position is 36 days out of date.

Length 189 m; draft 7 m.

Type: Cargo ship. MMSI: 351339000.

Date/timePositionNaut miles runAvg speedWind from/ knotsBaromVisibWave heightAir tempDewpointWater temp
2016-Aug-23 02:31N 31°60' E 120°21'10 9.6
2016-Aug-23 01:32N 32°04' E 120°32'29 9.1
2016-Aug-22 22:22N 31°47' E 120°59'1012.8
2016-Aug-22 21:33N 31°42' E 121°09'8 7.5
2016-Aug-22 20:31N 31°38' E 121°17'0 0.0
2016-Aug-22 19:31N 31°38' E 121°17'0 0.0
2016-Aug-22 18:28N 31°38' E 121°17'0 0.2
2016-Aug-22 17:32N 31°38' E 121°17'0 0.1
2016-Aug-22 16:28N 31°38' E 121°17'0 0.0
2016-Aug-22 15:28N 31°38' E 121°17'0 0.0
2016-Aug-22 14:25N 31°38' E 121°17'0 0.0
2016-Aug-22 13:28N 31°38' E 121°17'0 0.0
2016-Aug-22 12:31N 31°38' E 121°17'0 0.0
2016-Aug-22 11:31N 31°38' E 121°17'0 0.0
2016-Aug-22 10:28N 31°38' E 121°17'2 1.8
2016-Aug-22 09:33N 31°36' E 121°18'6 5.8
2016-Aug-22 08:34N 31°32' E 121°22'8 7.8
2016-Aug-22 07:33N 31°26' E 121°29'8 8.3
2016-Aug-22 06:33N 31°22' E 121°38'10 9.8
2016-Aug-22 05:33N 31°16' E 121°46'  
2016-Aug-19 00:33N 31°18' E 121°43'1110.6
2016-Aug-18 23:33N 31°24' E 121°33'1110.8
2016-Aug-18 22:33N 31°31' E 121°23'6 5.8
2016-Aug-18 21:31N 31°36' E 121°19'0 0.1
2016-Aug-18 20:31N 31°36' E 121°19'0 0.2
2016-Aug-18 19:31N 31°36' E 121°19'0 0.0
2016-Aug-18 18:31N 31°36' E 121°19'0 0.0
2016-Aug-18 17:25N 31°36' E 121°19'0 0.0
2016-Aug-18 16:31N 31°36' E 121°19'0 0.0
2016-Aug-18 15:31N 31°36' E 121°19'0 0.0
2016-Aug-18 14:31N 31°36' E 121°19'0 0.2
2016-Aug-18 13:31N 31°36' E 121°19'0 0.1
2016-Aug-18 12:31N 31°36' E 121°19'0 0.1
2016-Aug-18 11:31N 31°36' E 121°19'0 0.0
2016-Aug-18 10:31N 31°36' E 121°19'0 0.0
2016-Aug-18 09:31N 31°36' E 121°19'0 0.0
2016-Aug-18 08:21N 31°36' E 121°19'0 0.1
2016-Aug-18 07:33N 31°36' E 121°19'4 4.4
2016-Aug-18 06:34N 31°38' E 121°14'6 6.2
2016-Aug-18 05:34N 31°42' E 121°09'6 6.1
2016-Aug-18 04:33N 31°46' E 121°03'23 7.6
2016-Aug-18 01:31N 32°00' E 120°41'1010.1
2016-Aug-18 00:33N 32°04' E 120°31'1010.3
2016-Aug-17 23:32N 31°59' E 120°20'1010.5
2016-Aug-17 22:33N 31°56' E 120°09'1211.7
2016-Aug-17 21:33N 32°02' E 119°57'2 0.7
2016-Aug-17 18:20N 32°04' E 119°56'0 0.0
2016-Aug-17 17:33N 32°04' E 119°56'0 0.0
2016-Aug-17 16:26N 32°04' E 119°56'0 0.0
2016-Aug-17 15:32N 32°04' E 119°56'0 0.0
2016-Aug-17 13:32N 32°04' E 119°56'0 0.0
2016-Aug-17 10:22N 32°04' E 119°56'0 0.1
2016-Aug-17 09:22N 32°04' E 119°56'0 0.0
2016-Aug-17 08:28N 32°04' E 119°56'  
Track history (hours):
 
Tides and Currents Weather Stations Pressure Air Temp Water Temp Dewpoint Dewpoint Depression Visibility Wind Speed Wind Dir Waves Ship Positions

Kou An 1102

Last reported at 2016-Aug-23 02:31 UTC. Time now 2016-Sep-28 22:18 UTC.
Position N 31°60' E 120°21'.
Warning: this ship's position is 36 days out of date.

Length 189 m; draft 7 m.

Type: Cargo ship. MMSI: 351339000.

Date/timePositionNaut miles runAvg speedWind from/ knotsBaromVisibWave heightAir tempDewpointWater temp
2016-Aug-23 02:31N 31°60' E 120°21'10 9.6
2016-Aug-23 01:32N 32°04' E 120°32'29 9.1
2016-Aug-22 22:22N 31°47' E 120°59'1012.8
2016-Aug-22 21:33N 31°42' E 121°09'8 7.5
2016-Aug-22 20:31N 31°38' E 121°17'0 0.0
2016-Aug-22 19:31N 31°38' E 121°17'0 0.0
2016-Aug-22 18:28N 31°38' E 121°17'0 0.2
2016-Aug-22 17:32N 31°38' E 121°17'0 0.1
2016-Aug-22 16:28N 31°38' E 121°17'0 0.0
2016-Aug-22 15:28N 31°38' E 121°17'0 0.0
2016-Aug-22 14:25N 31°38' E 121°17'0 0.0
2016-Aug-22 13:28N 31°38' E 121°17'0 0.0
2016-Aug-22 12:31N 31°38' E 121°17'0 0.0
2016-Aug-22 11:31N 31°38' E 121°17'0 0.0
2016-Aug-22 10:28N 31°38' E 121°17'2 1.8
2016-Aug-22 09:33N 31°36' E 121°18'6 5.8
2016-Aug-22 08:34N 31°32' E 121°22'8 7.8
2016-Aug-22 07:33N 31°26' E 121°29'8 8.3
2016-Aug-22 06:33N 31°22' E 121°38'10 9.8
2016-Aug-22 05:33N 31°16' E 121°46'  
2016-Aug-19 00:33N 31°18' E 121°43'1110.6
2016-Aug-18 23:33N 31°24' E 121°33'1110.8
2016-Aug-18 22:33N 31°31' E 121°23'6 5.8
2016-Aug-18 21:31N 31°36' E 121°19'0 0.1
2016-Aug-18 20:31N 31°36' E 121°19'0 0.2
2016-Aug-18 19:31N 31°36' E 121°19'0 0.0
2016-Aug-18 18:31N 31°36' E 121°19'0 0.0
2016-Aug-18 17:25N 31°36' E 121°19'0 0.0
2016-Aug-18 16:31N 31°36' E 121°19'0 0.0
2016-Aug-18 15:31N 31°36' E 121°19'0 0.0
2016-Aug-18 14:31N 31°36' E 121°19'0 0.2
2016-Aug-18 13:31N 31°36' E 121°19'0 0.1
2016-Aug-18 12:31N 31°36' E 121°19'0 0.1
2016-Aug-18 11:31N 31°36' E 121°19'0 0.0
2016-Aug-18 10:31N 31°36' E 121°19'0 0.0
2016-Aug-18 09:31N 31°36' E 121°19'0 0.0
2016-Aug-18 08:21N 31°36' E 121°19'0 0.1
2016-Aug-18 07:33N 31°36' E 121°19'4 4.4
2016-Aug-18 06:34N 31°38' E 121°14'6 6.2
2016-Aug-18 05:34N 31°42' E 121°09'6 6.1
2016-Aug-18 04:33N 31°46' E 121°03'23 7.6
2016-Aug-18 01:31N 32°00' E 120°41'1010.1
2016-Aug-18 00:33N 32°04' E 120°31'1010.3
2016-Aug-17 23:32N 31°59' E 120°20'1010.5
2016-Aug-17 22:33N 31°56' E 120°09'1211.7
2016-Aug-17 21:33N 32°02' E 119°57'2 0.7
2016-Aug-17 18:20N 32°04' E 119°56'0 0.0
2016-Aug-17 17:33N 32°04' E 119°56'0 0.0
2016-Aug-17 16:26N 32°04' E 119°56'0 0.0
2016-Aug-17 15:32N 32°04' E 119°56'0 0.0
2016-Aug-17 13:32N 32°04' E 119°56'0 0.0
2016-Aug-17 10:22N 32°04' E 119°56'0 0.1
2016-Aug-17 09:22N 32°04' E 119°56'0 0.0
2016-Aug-17 08:28N 32°04' E 119°56'  

Dump ship's entire track history